N91CH KASE-KSLC
Flight info
| Callsign | N91CH |
|---|---|
| Flight time | 0h 55m |
| Altitude | 43000 |
| Route | LINDZ1 LINDZ RIL HELPR JAZZZ1 |
| Aircraft | HDJT/L-SABDGRWY/H |
Departure
| Time | 2026-05-04 22:07 |
|---|---|
| Airport | Aspen-Pitkin County Airport (Sardy Field) (KASE) |
Arrival
| Time | 2026-05-04 23:03 |
|---|---|
| Airport | Salt Lake City International Airport (KSLC) |
| Time | Latitude | Longitude | Altitude | Speed | Heading |
|---|---|---|---|---|---|
| 2026-05-04 21:54 | 39.22700 | -106.86902 | 7726 ft | 0 kts | 243° |
| 2026-05-04 22:00 | 39.22697 | -106.86909 | 7726 ft | 3 kts | 243° |
| 2026-05-04 22:01 | 39.22654 | -106.86924 | 7728 ft | 10 kts | 170° |
| 2026-05-04 22:01 | 39.22575 | -106.86889 | 7734 ft | 13 kts | 160° |
| 2026-05-04 22:01 | 39.22480 | -106.86843 | 7739 ft | 18 kts | 161° |
| 2026-05-04 22:01 | 39.22351 | -106.86782 | 7746 ft | 21 kts | 160° |
| 2026-05-04 22:02 | 39.22206 | -106.86713 | 7757 ft | 23 kts | 159° |
| 2026-05-04 22:02 | 39.22059 | -106.86643 | 7770 ft | 22 kts | 160° |
| 2026-05-04 22:02 | 39.21924 | -106.86577 | 7785 ft | 19 kts | 159° |
| 2026-05-04 22:02 | 39.21798 | -106.86518 | 7793 ft | 19 kts | 160° |
| 2026-05-04 22:03 | 39.21683 | -106.86463 | 7804 ft | 15 kts | 159° |
| 2026-05-04 22:03 | 39.21636 | -106.86407 | 7808 ft | 8 kts | 116° |
| 2026-05-04 22:03 | 39.21590 | -106.86362 | 7811 ft | 10 kts | 160° |
| 2026-05-04 22:03 | 39.21520 | -106.86329 | 7815 ft | 12 kts | 159° |
| 2026-05-04 22:04 | 39.21462 | -106.86304 | 7818 ft | 0 kts | 183° |
| 2026-05-04 22:04 | 39.21459 | -106.86305 | 7819 ft | 2 kts | 198° |
| 2026-05-04 22:04 | 39.21454 | -106.86308 | 7819 ft | 0 kts | 209° |
| 2026-05-04 22:04 | 39.21450 | -106.86311 | 7819 ft | 3 kts | 212° |
| 2026-05-04 22:05 | 39.21448 | -106.86312 | 7820 ft | 0 kts | 216° |
| 2026-05-04 22:05 | 39.21427 | -106.86331 | 7822 ft | 8 kts | 200° |
| 2026-05-04 22:05 | 39.21356 | -106.86306 | 7828 ft | 14 kts | 159° |
| 2026-05-04 22:05 | 39.21245 | -106.86253 | 7830 ft | 17 kts | 163° |
| 2026-05-04 22:06 | 39.21177 | -106.86300 | 7836 ft | 11 kts | 252° |
| 2026-05-04 22:06 | 39.21183 | -106.86344 | 7832 ft | 0 kts | 341° |
| 2026-05-04 22:06 | 39.21187 | -106.86346 | 7833 ft | 4 kts | 341° |
| 2026-05-04 22:06 | 39.21420 | -106.86458 | 7822 ft | 73 kts | 340° |
| 2026-05-04 22:07 | 39.22131 | -106.86795 | 7766 ft | 141 kts | 339° |
| 2026-05-04 22:07 | 39.23105 | -106.87260 | 8125 ft | 158 kts | 337° |
| 2026-05-04 22:07 | 39.24217 | -106.87797 | 8452 ft | 184 kts | 343° |
| 2026-05-04 22:07 | 39.25544 | -106.88169 | 8896 ft | 204 kts | 348° |
| 2026-05-04 22:08 | 39.26875 | -106.88919 | 9369 ft | 218 kts | 319° |
| 2026-05-04 22:08 | 39.27721 | -106.90533 | 9730 ft | 217 kts | 287° |
| 2026-05-04 22:08 | 39.28173 | -106.92411 | 9862 ft | 228 kts | 283° |
| 2026-05-04 22:08 | 39.28571 | -106.94372 | 10536 ft | 221 kts | 281° |
| 2026-05-04 22:09 | 39.28933 | -106.96316 | 11259 ft | 227 kts | 282° |
| 2026-05-04 22:09 | 39.29300 | -106.98307 | 12000 ft | 229 kts | 281° |
| 2026-05-04 22:09 | 39.29678 | -107.00320 | 12740 ft | 232 kts | 281° |
| 2026-05-04 22:09 | 39.30112 | -107.02346 | 13369 ft | 237 kts | 289° |
| 2026-05-04 22:10 | 39.30899 | -107.04246 | 13931 ft | 244 kts | 301° |
| 2026-05-04 22:10 | 39.32008 | -107.05953 | 14387 ft | 253 kts | 309° |
| 2026-05-04 22:10 | 39.33198 | -107.07633 | 14993 ft | 254 kts | 308° |
| 2026-05-04 22:10 | 39.34383 | -107.09333 | 15619 ft | 255 kts | 308° |
| 2026-05-04 22:11 | 39.35569 | -107.11041 | 16246 ft | 256 kts | 307° |
| 2026-05-04 22:11 | 39.36768 | -107.12763 | 16846 ft | 259 kts | 307° |
| 2026-05-04 22:11 | 39.37972 | -107.14500 | 17496 ft | 259 kts | 305° |
| 2026-05-04 22:11 | 39.38947 | -107.16439 | 18124 ft | 257 kts | 292° |
| 2026-05-04 22:12 | 39.39580 | -107.18589 | 18684 ft | 255 kts | 284° |
| 2026-05-04 22:12 | 39.40118 | -107.20779 | 19237 ft | 256 kts | 285° |
| 2026-05-04 22:12 | 39.40677 | -107.22968 | 19809 ft | 257 kts | 285° |
| 2026-05-04 22:12 | 39.41232 | -107.25169 | 20408 ft | 257 kts | 285° |
| 2026-05-04 22:13 | 39.41775 | -107.27345 | 21000 ft | 258 kts | 285° |
| 2026-05-04 22:13 | 39.42335 | -107.29588 | 21610 ft | 259 kts | 285° |
| 2026-05-04 22:13 | 39.42882 | -107.31779 | 22230 ft | 260 kts | 285° |
| 2026-05-04 22:13 | 39.43439 | -107.34010 | 22836 ft | 262 kts | 285° |
| 2026-05-04 22:14 | 39.44001 | -107.36257 | 23450 ft | 263 kts | 285° |
| 2026-05-04 22:14 | 39.44560 | -107.38510 | 24012 ft | 264 kts | 285° |
| 2026-05-04 22:14 | 39.45122 | -107.40771 | 24548 ft | 266 kts | 285° |
| 2026-05-04 22:14 | 39.45690 | -107.43055 | 25056 ft | 267 kts | 285° |
| 2026-05-04 22:15 | 39.46260 | -107.45350 | 25584 ft | 269 kts | 285° |
| 2026-05-04 22:15 | 39.46833 | -107.47655 | 26108 ft | 269 kts | 285° |
| 2026-05-04 22:15 | 39.47407 | -107.49967 | 26643 ft | 271 kts | 285° |
| 2026-05-04 22:15 | 39.47981 | -107.52292 | 27114 ft | 272 kts | 285° |
| 2026-05-04 22:16 | 39.48560 | -107.54628 | 27570 ft | 273 kts | 284° |
| 2026-05-04 22:16 | 39.49141 | -107.56978 | 28050 ft | 275 kts | 284° |
| 2026-05-04 22:16 | 39.49724 | -107.59340 | 28503 ft | 276 kts | 284° |
| 2026-05-04 22:16 | 39.50310 | -107.61711 | 28936 ft | 277 kts | 284° |
| 2026-05-04 22:17 | 39.50897 | -107.64098 | 29358 ft | 279 kts | 284° |
| 2026-05-04 22:17 | 39.51489 | -107.66499 | 29745 ft | 281 kts | 284° |
| 2026-05-04 22:17 | 39.52082 | -107.68911 | 30123 ft | 282 kts | 284° |
| 2026-05-04 22:17 | 39.52657 | -107.71329 | 30515 ft | 279 kts | 281° |
| 2026-05-04 22:18 | 39.53002 | -107.73769 | 30994 ft | 273 kts | 275° |
| 2026-05-04 22:18 | 39.53211 | -107.76189 | 31488 ft | 268 kts | 274° |
| 2026-05-04 22:18 | 39.53435 | -107.78576 | 31906 ft | 266 kts | 275° |
| 2026-05-04 22:18 | 39.53656 | -107.80938 | 32338 ft | 262 kts | 274° |
| 2026-05-04 22:19 | 39.53867 | -107.83269 | 32653 ft | 259 kts | 274° |
| 2026-05-04 22:19 | 39.54075 | -107.85568 | 33074 ft | 256 kts | 274° |
| 2026-05-04 22:19 | 39.54281 | -107.87840 | 33490 ft | 252 kts | 273° |
| 2026-05-04 22:19 | 39.54484 | -107.90091 | 33792 ft | 251 kts | 273° |
| 2026-05-04 22:20 | 39.54684 | -107.92318 | 34153 ft | 247 kts | 272° |
| 2026-05-04 22:20 | 39.54885 | -107.94512 | 34506 ft | 243 kts | 272° |
| 2026-05-04 22:20 | 39.55076 | -107.96666 | 34911 ft | 238 kts | 272° |
| 2026-05-04 22:20 | 39.55265 | -107.98782 | 35281 ft | 234 kts | 272° |
| 2026-05-04 22:21 | 39.55450 | -108.00863 | 35595 ft | 230 kts | 271° |
| 2026-05-04 22:21 | 39.55632 | -108.02907 | 35917 ft | 227 kts | 271° |
| 2026-05-04 22:21 | 39.55816 | -108.04933 | 36220 ft | 225 kts | 271° |
| 2026-05-04 22:21 | 39.55996 | -108.06930 | 36477 ft | 221 kts | 270° |
| 2026-05-04 22:22 | 39.56167 | -108.08904 | 36765 ft | 220 kts | 270° |
| 2026-05-04 22:22 | 39.56340 | -108.10862 | 37116 ft | 218 kts | 270° |
| 2026-05-04 22:22 | 39.56513 | -108.12816 | 37247 ft | 220 kts | 270° |
| 2026-05-04 22:22 | 39.56687 | -108.14774 | 37553 ft | 216 kts | 270° |
| 2026-05-04 22:23 | 39.56859 | -108.16672 | 37934 ft | 209 kts | 269° |
| 2026-05-04 22:23 | 39.57020 | -108.18530 | 38242 ft | 206 kts | 269° |
| 2026-05-04 22:23 | 39.57177 | -108.20370 | 38483 ft | 205 kts | 269° |
| 2026-05-04 22:23 | 39.57336 | -108.22202 | 38659 ft | 205 kts | 269° |
| 2026-05-04 22:24 | 39.57498 | -108.24047 | 38762 ft | 206 kts | 269° |
| 2026-05-04 22:24 | 39.57660 | -108.25897 | 38902 ft | 208 kts | 269° |
| 2026-05-04 22:24 | 39.57826 | -108.27764 | 39048 ft | 210 kts | 269° |
| 2026-05-04 22:24 | 39.57989 | -108.29662 | 39193 ft | 212 kts | 270° |
| 2026-05-04 22:25 | 39.58152 | -108.31565 | 39358 ft | 213 kts | 270° |
| 2026-05-04 22:25 | 39.58314 | -108.33456 | 39537 ft | 215 kts | 270° |
| 2026-05-04 22:25 | 39.58485 | -108.35386 | 39530 ft | 215 kts | 271° |
| 2026-05-04 22:25 | 39.58659 | -108.37295 | 39690 ft | 215 kts | 270° |
| 2026-05-04 22:26 | 39.58811 | -108.39177 | 39639 ft | 210 kts | 270° |
| 2026-05-04 22:26 | 39.58967 | -108.41118 | 39399 ft | 224 kts | 270° |
| 2026-05-04 22:26 | 39.59145 | -108.43216 | 38940 ft | 245 kts | 270° |
| 2026-05-04 22:26 | 39.59341 | -108.45489 | 38458 ft | 263 kts | 269° |
| 2026-05-04 22:27 | 39.59552 | -108.47916 | 37819 ft | 278 kts | 270° |
| 2026-05-04 22:27 | 39.59771 | -108.50430 | 37302 ft | 282 kts | 270° |
| 2026-05-04 22:27 | 39.59989 | -108.52999 | 36379 ft | 291 kts | 271° |
| 2026-05-04 22:27 | 39.60211 | -108.55663 | 35757 ft | 304 kts | 271° |
| 2026-05-04 22:28 | 39.60446 | -108.58438 | 35251 ft | 315 kts | 272° |
| 2026-05-04 22:28 | 39.60688 | -108.61299 | 34712 ft | 323 kts | 272° |
| 2026-05-04 22:28 | 39.60937 | -108.64220 | 34045 ft | 329 kts | 273° |
| 2026-05-04 22:28 | 39.61188 | -108.67219 | 33514 ft | 339 kts | 273° |
| 2026-05-04 22:29 | 39.61442 | -108.70292 | 32982 ft | 346 kts | 274° |
| 2026-05-04 22:29 | 39.61700 | -108.73408 | 32463 ft | 349 kts | 274° |
| 2026-05-04 22:29 | 39.61960 | -108.76548 | 32214 ft | 352 kts | 274° |
| 2026-05-04 22:29 | 39.62224 | -108.79717 | 31963 ft | 354 kts | 274° |
| 2026-05-04 22:30 | 39.62487 | -108.82891 | 31759 ft | 354 kts | 274° |
| 2026-05-04 22:30 | 39.63003 | -108.89210 | 31734 ft | 351 kts | 274° |
| 2026-05-04 22:31 | 39.63514 | -108.95496 | 31739 ft | 350 kts | 274° |
| 2026-05-04 22:31 | 39.64020 | -109.01761 | 31722 ft | 348 kts | 274° |
| 2026-05-04 22:32 | 39.64519 | -109.07980 | 31720 ft | 346 kts | 274° |
| 2026-05-04 22:32 | 39.65014 | -109.14198 | 31709 ft | 346 kts | 274° |
| 2026-05-04 22:33 | 39.65505 | -109.20417 | 31713 ft | 347 kts | 273° |
| 2026-05-04 22:33 | 39.65996 | -109.26655 | 31708 ft | 347 kts | 273° |
| 2026-05-04 22:34 | 39.66483 | -109.32896 | 31711 ft | 348 kts | 273° |
| 2026-05-04 22:34 | 39.66966 | -109.39131 | 31710 ft | 347 kts | 273° |
| 2026-05-04 22:35 | 39.67446 | -109.45358 | 31708 ft | 347 kts | 273° |
| 2026-05-04 22:35 | 39.67922 | -109.51595 | 31718 ft | 348 kts | 273° |
| 2026-05-04 22:36 | 39.68395 | -109.57817 | 31713 ft | 349 kts | 273° |
| 2026-05-04 22:36 | 39.68867 | -109.64095 | 31713 ft | 350 kts | 273° |
| 2026-05-04 22:37 | 39.69340 | -109.70423 | 31710 ft | 350 kts | 273° |
| 2026-05-04 22:37 | 39.69804 | -109.76678 | 31708 ft | 350 kts | 273° |
| 2026-05-04 22:38 | 39.70269 | -109.82980 | 31709 ft | 351 kts | 273° |
| 2026-05-04 22:38 | 39.70730 | -109.89297 | 31703 ft | 352 kts | 273° |
| 2026-05-04 22:39 | 39.71190 | -109.95637 | 31714 ft | 353 kts | 273° |
| 2026-05-04 22:39 | 39.71645 | -110.02013 | 31707 ft | 355 kts | 274° |
| 2026-05-04 22:40 | 39.72110 | -110.08406 | 31713 ft | 355 kts | 273° |
| 2026-05-04 22:40 | 39.72558 | -110.14787 | 31723 ft | 354 kts | 272° |
| 2026-05-04 22:41 | 39.73006 | -110.21146 | 31743 ft | 353 kts | 272° |
| 2026-05-04 22:41 | 39.73448 | -110.27493 | 31741 ft | 353 kts | 272° |
| 2026-05-04 22:42 | 39.73888 | -110.33827 | 31740 ft | 351 kts | 272° |
| 2026-05-04 22:42 | 39.74322 | -110.40160 | 31762 ft | 353 kts | 272° |
| 2026-05-04 22:43 | 39.74755 | -110.46526 | 31757 ft | 354 kts | 273° |
| 2026-05-04 22:43 | 39.75321 | -110.52908 | 31335 ft | 358 kts | 279° |
| 2026-05-04 22:43 | 39.75981 | -110.56038 | 30863 ft | 362 kts | 286° |
| 2026-05-04 22:44 | 39.76949 | -110.59087 | 30384 ft | 368 kts | 292° |
| 2026-05-04 22:44 | 39.78110 | -110.62080 | 29906 ft | 373 kts | 294° |
| 2026-05-04 22:44 | 39.79266 | -110.65112 | 29449 ft | 376 kts | 293° |
| 2026-05-04 22:44 | 39.80425 | -110.68174 | 28953 ft | 379 kts | 293° |
| 2026-05-04 22:45 | 39.81600 | -110.71251 | 28451 ft | 381 kts | 294° |
| 2026-05-04 22:45 | 39.83955 | -110.77413 | 27446 ft | 379 kts | 294° |
| 2026-05-04 22:45 | 39.85119 | -110.80480 | 26941 ft | 377 kts | 294° |
| 2026-05-04 22:46 | 39.86280 | -110.83537 | 26446 ft | 377 kts | 293° |
| 2026-05-04 22:46 | 39.87450 | -110.86628 | 25935 ft | 383 kts | 293° |
| 2026-05-04 22:46 | 39.88635 | -110.89736 | 25424 ft | 383 kts | 294° |
| 2026-05-04 22:46 | 39.89812 | -110.92833 | 24913 ft | 380 kts | 293° |
| 2026-05-04 22:47 | 39.90976 | -110.95914 | 24408 ft | 378 kts | 293° |
| 2026-05-04 22:47 | 39.92135 | -110.98988 | 23901 ft | 379 kts | 294° |
| 2026-05-04 22:47 | 39.93298 | -111.02068 | 23393 ft | 378 kts | 294° |
| 2026-05-04 22:47 | 39.94441 | -111.05088 | 22861 ft | 374 kts | 293° |
| 2026-05-04 22:48 | 39.95583 | -111.08119 | 22366 ft | 372 kts | 294° |
| 2026-05-04 22:48 | 39.96720 | -111.11143 | 21868 ft | 369 kts | 292° |
| 2026-05-04 22:48 | 39.97840 | -111.14115 | 21383 ft | 364 kts | 294° |
| 2026-05-04 22:48 | 39.98959 | -111.17095 | 20891 ft | 366 kts | 294° |
| 2026-05-04 22:49 | 40.00073 | -111.20065 | 20413 ft | 364 kts | 294° |
| 2026-05-04 22:49 | 40.01192 | -111.23045 | 19932 ft | 367 kts | 293° |
| 2026-05-04 22:49 | 40.02321 | -111.26063 | 19580 ft | 364 kts | 293° |
| 2026-05-04 22:49 | 40.03430 | -111.29023 | 19117 ft | 362 kts | 294° |
| 2026-05-04 22:50 | 40.04518 | -111.31930 | 18648 ft | 360 kts | 293° |
| 2026-05-04 22:50 | 40.05612 | -111.34856 | 18175 ft | 357 kts | 294° |
| 2026-05-04 22:50 | 40.06691 | -111.37753 | 17674 ft | 353 kts | 294° |
| 2026-05-04 22:50 | 40.07765 | -111.40634 | 17187 ft | 352 kts | 293° |
| 2026-05-04 22:51 | 40.08833 | -111.43496 | 16722 ft | 349 kts | 293° |
| 2026-05-04 22:51 | 40.09889 | -111.46338 | 16266 ft | 344 kts | 294° |
| 2026-05-04 22:51 | 40.10908 | -111.49075 | 15826 ft | 328 kts | 293° |
| 2026-05-04 22:51 | 40.11892 | -111.51717 | 15402 ft | 318 kts | 294° |
| 2026-05-04 22:52 | 40.12523 | -111.53426 | 15121 ft | 314 kts | 294° |
| 2026-05-04 22:52 | 40.13440 | -111.56019 | 14902 ft | 314 kts | 291° |
| 2026-05-04 22:52 | 40.14315 | -111.58642 | 15008 ft | 316 kts | 293° |
| 2026-05-04 22:52 | 40.15212 | -111.61274 | 15006 ft | 317 kts | 292° |
| 2026-05-04 22:53 | 40.16102 | -111.63908 | 15005 ft | 316 kts | 292° |
| 2026-05-04 22:53 | 40.17053 | -111.66499 | 15004 ft | 317 kts | 301° |
| 2026-05-04 22:53 | 40.18429 | -111.68757 | 15011 ft | 319 kts | 314° |
| 2026-05-04 22:53 | 40.20071 | -111.70711 | 15020 ft | 319 kts | 317° |
| 2026-05-04 22:54 | 40.21711 | -111.72661 | 15022 ft | 319 kts | 316° |
| 2026-05-04 22:54 | 40.23345 | -111.74628 | 15021 ft | 320 kts | 316° |
| 2026-05-04 22:54 | 40.24986 | -111.76592 | 15025 ft | 319 kts | 316° |
| 2026-05-04 22:54 | 40.26627 | -111.78549 | 15026 ft | 319 kts | 316° |
| 2026-05-04 22:55 | 40.28271 | -111.80514 | 14994 ft | 322 kts | 315° |
| 2026-05-04 22:55 | 40.29925 | -111.82497 | 14748 ft | 316 kts | 316° |
| 2026-05-04 22:55 | 40.31508 | -111.84393 | 14497 ft | 302 kts | 317° |
| 2026-05-04 22:55 | 40.33029 | -111.86216 | 14246 ft | 293 kts | 316° |
| 2026-05-04 22:56 | 40.34595 | -111.87923 | 13997 ft | 294 kts | 327° |
| 2026-05-04 22:56 | 40.36420 | -111.89113 | 13756 ft | 292 kts | 336° |
| 2026-05-04 22:56 | 40.38273 | -111.90193 | 13498 ft | 292 kts | 335° |
| 2026-05-04 22:56 | 40.40122 | -111.91300 | 13136 ft | 291 kts | 334° |
| 2026-05-04 22:57 | 40.41947 | -111.92392 | 12782 ft | 287 kts | 335° |
| 2026-05-04 22:57 | 40.43805 | -111.93332 | 12435 ft | 287 kts | 346° |
| 2026-05-04 22:57 | 40.45774 | -111.93660 | 12074 ft | 285 kts | 355° |
| 2026-05-04 22:57 | 40.47745 | -111.93877 | 11610 ft | 283 kts | 352° |
| 2026-05-04 22:58 | 40.49609 | -111.94600 | 11062 ft | 278 kts | 339° |
| 2026-05-04 22:58 | 40.51497 | -111.95107 | 10526 ft | 277 kts | 355° |
| 2026-05-04 22:58 | 40.53421 | -111.95108 | 9995 ft | 276 kts | 0° |
| 2026-05-04 22:58 | 40.55328 | -111.94977 | 9436 ft | 274 kts | 1° |
| 2026-05-04 22:59 | 40.57190 | -111.94824 | 8780 ft | 266 kts | 2° |
| 2026-05-04 22:59 | 40.59046 | -111.94665 | 7996 ft | 273 kts | 2° |
| 2026-05-04 22:59 | 40.60976 | -111.94690 | 7146 ft | 281 kts | 351° |
| 2026-05-04 22:59 | 40.62910 | -111.95025 | 6872 ft | 279 kts | 349° |
| 2026-05-04 23:00 | 40.64739 | -111.95624 | 6681 ft | 261 kts | 341° |
| 2026-05-04 23:00 | 40.66441 | -111.96186 | 6531 ft | 243 kts | 348° |
| 2026-05-04 23:00 | 40.68086 | -111.96339 | 6378 ft | 234 kts | 358° |
| 2026-05-04 23:00 | 40.69700 | -111.96348 | 6000 ft | 231 kts | 356° |
| 2026-05-04 23:01 | 40.71262 | -111.96423 | 5771 ft | 216 kts | 349° |
| 2026-05-04 23:01 | 40.72702 | -111.96715 | 5386 ft | 203 kts | 352° |
| 2026-05-04 23:01 | 40.74016 | -111.96943 | 4956 ft | 176 kts | 356° |
| 2026-05-04 23:01 | 40.75155 | -111.97108 | 4668 ft | 147 kts | 6° |
| 2026-05-04 23:02 | 40.76083 | -111.97177 | 4491 ft | 127 kts | 5° |
| 2026-05-04 23:02 | 40.76972 | -111.97255 | 4368 ft | 130 kts | 358° |
| 2026-05-04 23:02 | 40.77887 | -111.97370 | 4277 ft | 132 kts | 357° |
| 2026-05-04 23:02 | 40.78716 | -111.97458 | 4230 ft | 94 kts | 355° |
| 2026-05-04 23:03 | 40.79075 | -111.97501 | 4230 ft | 34 kts | 354° |
| 2026-05-04 23:03 | 40.79308 | -111.97528 | 4228 ft | 36 kts | 355° |
| 2026-05-04 23:03 | 40.79558 | -111.97555 | 4228 ft | 31 kts | 355° |
| 2026-05-04 23:03 | 40.79685 | -111.97552 | 4228 ft | 15 kts | 37° |
| 2026-05-04 23:04 | 40.79707 | -111.97413 | 4229 ft | 18 kts | 83° |
| 2026-05-04 23:04 | 40.79725 | -111.97209 | 4229 ft | 27 kts | 79° |
| 2026-05-04 23:04 | 40.79767 | -111.96945 | 4229 ft | 29 kts | 78° |
| 2026-05-04 23:04 | 40.79804 | -111.96691 | 4229 ft | 28 kts | 79° |
| 2026-05-04 23:05 | 40.79841 | -111.96433 | 4229 ft | 28 kts | 79° |
| 2026-05-04 23:05 | 40.79876 | -111.96203 | 4226 ft | 24 kts | 78° |
| 2026-05-04 23:05 | 40.79889 | -111.96041 | 4229 ft | 14 kts | 92° |
| 2026-05-04 23:05 | 40.79806 | -111.96004 | 4229 ft | 20 kts | 178° |
| 2026-05-04 23:06 | 40.79628 | -111.96003 | 4229 ft | 31 kts | 181° |
| 2026-05-04 23:06 | 40.79425 | -111.96004 | 4229 ft | 28 kts | 180° |
| 2026-05-04 23:06 | 40.79231 | -111.96004 | 4229 ft | 29 kts | 180° |
| 2026-05-04 23:06 | 40.79027 | -111.96004 | 4229 ft | 30 kts | 180° |
| 2026-05-04 23:07 | 40.78827 | -111.96004 | 4230 ft | 28 kts | 180° |
| 2026-05-04 23:07 | 40.78635 | -111.96004 | 4229 ft | 27 kts | 180° |
| 2026-05-04 23:07 | 40.78444 | -111.96004 | 4229 ft | 28 kts | 180° |
| 2026-05-04 23:07 | 40.78250 | -111.96003 | 4229 ft | 28 kts | 180° |
| 2026-05-04 23:08 | 40.78055 | -111.96004 | 4252 ft | 27 kts | 180° |
| 2026-05-04 23:08 | 40.77911 | -111.96002 | 4260 ft | 11 kts | 179° |
| 2026-05-04 23:08 | 40.77884 | -111.95944 | 4260 ft | 8 kts | 108° |
| 2026-05-04 23:08 | 40.77862 | -111.95925 | 4260 ft | 0 kts | 181° |
| 2026-05-04 23:09 | 40.77849 | -111.95924 | 4260 ft | 5 kts | 167° |
| 2026-05-04 23:09 | 40.77834 | -111.95871 | 4260 ft | 10 kts | 89° |
| 2026-05-04 23:09 | 40.77834 | -111.95753 | 4260 ft | 15 kts | 91° |
| 2026-05-04 23:10 | 40.77835 | -111.95638 | 4260 ft | 8 kts | 88° |
| 2026-05-04 23:10 | 40.77820 | -111.95605 | 4260 ft | 5 kts | 168° |
| 2026-05-04 23:10 | 40.77806 | -111.95601 | 4260 ft | 2 kts | 135° |
| 2026-05-04 23:10 | 40.77802 | -111.95591 | 4260 ft | 0 kts | 99° |
| 2026-05-04 23:12 | 40.77800 | -111.95589 | 4260 ft | 1 kts | 197° |
| 2026-05-04 23:12 | 40.77779 | -111.95607 | 4260 ft | 5 kts | 196° |
| 2026-05-04 23:13 | 40.77773 | -111.95604 | 4260 ft | 1 kts | 43° |
| 2026-05-04 23:13 | 40.77820 | -111.95604 | 4260 ft | 10 kts | 348° |
| 2026-05-04 23:13 | 40.77835 | -111.95686 | 4260 ft | 13 kts | 272° |
| 2026-05-04 23:13 | 40.77835 | -111.95845 | 4260 ft | 20 kts | 271° |
| 2026-05-04 23:14 | 40.77835 | -111.96009 | 4260 ft | 15 kts | 271° |
| 2026-05-04 23:14 | 40.77774 | -111.96065 | 4260 ft | 14 kts | 180° |
| 2026-05-04 23:14 | 40.77666 | -111.96064 | 4261 ft | 16 kts | 180° |
| 2026-05-04 23:14 | 40.77572 | -111.96065 | 4261 ft | 11 kts | 182° |
| 2026-05-04 23:15 | 40.77525 | -111.96041 | 4261 ft | 6 kts | 91° |
| 2026-05-04 23:15 | 40.77525 | -111.95992 | 4260 ft | 6 kts | 89° |
| 2026-05-04 23:15 | 40.77528 | -111.95964 | 4260 ft | 2 kts | 51° |
| 2026-05-04 23:15 | 40.77544 | -111.95954 | 4260 ft | 3 kts | 15° |
| 2026-05-04 23:16 | 40.77554 | -111.95952 | 4260 ft | 1 kts | 4° |
| 2026-05-04 23:16 | 40.77556 | -111.95952 | 4260 ft | 0 kts | 2° |
| 2026-05-04 23:36 | 40.77551 | -111.95952 | 4260 ft | 4 kts | 359° |
| 2026-05-04 23:36 | 40.77530 | -111.95944 | 4255 ft | 4 kts | 298° |
| 2026-05-04 23:36 | 40.77525 | -111.95923 | 4257 ft | 0 kts | 270° |